Terminal Aerodrome Forecast
Issued by NWS

Home | Current Version | Previous Version | Text Only | Print | Product List | Glossary On
Versions: 1 2 3 4 5 6 7 8 9 10 11 12 13 14 15 16 17 18 19 20
000
FTUS43 KICT 280323 AAA
TAFHUT
TAF AMD
KHUT 280323Z 2803/2824 17014KT P6SM VCTS SCT040CB BKN100
      TEMPO 2803/2807 -TSRA
     FM281300 21014KT P6SM VCTS SCT040CB BKN080
     FM282000 19014G20KT P6SM SCT040 BKN080=

USA.gov is the U.S. government's official web portal to all federal, state and local government web resources and services.